Time,TemperatureF,DewpointF,PressureIn,WindDirection,WindDirectionDegrees,WindSpeedMPH,WindSpeedGustMPH,Humidity,HourlyPrecipIn,Conditions,Clouds,dailyrainin,SoftwareType,DateUTC
2013-12-28 00:02:00,39.4,36.5,30.34,SW,235,0.0,0.0,89,0.00,,,0.00,meteohub,2013-12-28 06:02:00,
2013-12-28 00:07:00,39.4,36.5,30.34,SW,235,0.0,0.0,89,0.00,,,0.00,meteohub,2013-12-28 06:07:00,
2013-12-28 00:12:00,39.4,36.1,30.34,SW,235,0.0,0.0,88,0.00,,,0.00,meteohub,2013-12-28 06:12:00,
2013-12-28 00:17:00,39.4,36.1,30.34,SW,235,0.0,0.0,88,0.00,,,0.00,meteohub,2013-12-28 06:17:00,
2013-12-28 00:22:00,39.4,36.1,30.33,SW,235,0.0,0.0,88,0.00,,,0.00,meteohub,2013-12-28 06:22:00,
2013-12-28 00:27:00,39.4,35.8,30.33,SW,235,0.0,0.0,87,0.00,,,0.00,meteohub,2013-12-28 06:27:00,
2013-12-28 00:32:00,39.0,35.2,30.33,SW,235,0.0,0.0,86,0.00,,,0.00,meteohub,2013-12-28 06:32:00,
2013-12-28 00:37:00,38.8,35.1,30.33,SW,235,0.0,0.0,86,0.00,,,0.00,meteohub,2013-12-28 06:37:00,
2013-12-28 00:42:00,38.7,34.9,30.33,SW,235,0.0,0.0,86,0.00,,,0.00,meteohub,2013-12-28 06:42:00,
2013-12-28 00:47:00,38.5,34.7,30.33,SW,235,0.0,0.0,86,0.00,,,0.00,meteohub,2013-12-28 06:47:00,
2013-12-28 00:52:00,38.1,34.5,30.33,SW,235,0.0,0.0,87,0.00,,,0.00,meteohub,2013-12-28 06:52:00,
2013-12-28 00:57:00,38.1,34.9,30.33,SW,235,0.0,0.0,88,0.00,,,0.00,meteohub,2013-12-28 06:57:00,
2013-12-28 01:02:00,38.1,34.9,30.32,SW,235,0.0,0.0,88,0.00,,,0.00,meteohub,2013-12-28 07:02:00,
2013-12-28 01:07:00,38.3,35.4,30.33,SW,235,0.0,0.0,89,0.00,,,0.00,meteohub,2013-12-28 07:07:00,
2013-12-28 01:12:00,38.5,35.6,30.33,SW,235,0.0,0.0,89,0.00,,,0.00,meteohub,2013-12-28 07:12:00,
2013-12-28 01:17:00,38.7,35.4,30.32,SW,235,0.0,0.0,88,0.00,,,0.00,meteohub,2013-12-28 07:17:00,
2013-12-28 01:22:00,38.7,35.4,30.32,SW,235,0.0,0.0,88,0.00,,,0.00,meteohub,2013-12-28 07:22:00,
2013-12-28 01:27:00,38.7,35.4,30.32,SW,235,0.0,0.0,88,0.00,,,0.00,meteohub,2013-12-28 07:27:00,
2013-12-28 01:32:00,38.7,35.4,30.32,SW,235,0.0,0.0,88,0.00,,,0.00,meteohub,2013-12-28 07:32:00,
2013-12-28 01:37:00,38.7,35.4,30.31,SW,235,0.0,0.0,88,0.00,,,0.00,meteohub,2013-12-28 07:37:00,
2013-12-28 01:42:00,38.7,35.1,30.31,SW,235,0.0,0.0,87,0.00,,,0.00,meteohub,2013-12-28 07:42:00,
2013-12-28 01:47:00,38.7,35.1,30.31,SW,235,0.0,0.0,87,0.00,,,0.00,meteohub,2013-12-28 07:47:00,
2013-12-28 01:52:00,38.7,35.4,30.31,SW,235,0.0,0.0,88,0.00,,,0.00,meteohub,2013-12-28 07:52:00,
2013-12-28 01:57:00,38.7,35.4,30.31,SW,235,0.0,0.0,88,0.00,,,0.00,meteohub,2013-12-28 07:57:00,
2013-12-28 02:02:00,38.7,35.1,30.30,SW,235,0.0,0.0,87,0.00,,,0.00,meteohub,2013-12-28 08:02:00,
2013-12-28 02:07:00,38.5,34.9,30.30,SW,235,0.0,0.0,87,0.00,,,0.00,meteohub,2013-12-28 08:07:00,
2013-12-28 02:12:00,38.5,34.9,30.30,SW,235,0.0,0.0,87,0.00,,,0.00,meteohub,2013-12-28 08:12:00,
2013-12-28 02:17:00,38.1,34.5,30.30,SW,235,0.0,0.0,87,0.00,,,0.00,meteohub,2013-12-28 08:17:00,
2013-12-28 02:22:00,38.1,34.5,30.29,SW,235,0.0,0.0,87,0.00,,,0.00,meteohub,2013-12-28 08:22:00,
2013-12-28 02:27:00,38.1,34.5,30.29,SW,235,0.0,0.0,87,0.00,,,0.00,meteohub,2013-12-28 08:27:00,
2013-12-28 02:32:00,38.1,34.9,30.30,SW,235,0.0,0.0,88,0.00,,,0.00,meteohub,2013-12-28 08:32:00,
2013-12-28 02:37:00,38.1,34.9,30.29,SW,235,0.0,0.0,88,0.00,,,0.00,meteohub,2013-12-28 08:37:00,
2013-12-28 02:42:00,38.1,34.9,30.29,SW,235,0.0,0.0,88,0.00,,,0.00,meteohub,2013-12-28 08:42:00,
2013-12-28 02:47:00,38.1,34.9,30.29,SW,235,0.0,0.0,88,0.00,,,0.00,meteohub,2013-12-28 08:47:00,
2013-12-28 02:52:00,38.1,34.9,30.28,SW,235,0.0,0.0,88,0.00,,,0.00,meteohub,2013-12-28 08:52:00,
2013-12-28 02:57:00,38.1,34.9,30.28,SW,235,0.0,0.0,88,0.00,,,0.00,meteohub,2013-12-28 08:57:00,
2013-12-28 03:02:00,38.1,34.9,30.28,SW,235,0.0,0.0,88,0.00,,,0.00,meteohub,2013-12-28 09:02:00,
2013-12-28 03:07:00,37.9,34.7,30.28,SW,235,0.0,0.0,88,0.00,,,0.00,meteohub,2013-12-28 09:07:00,
2013-12-28 03:12:00,37.9,34.7,30.28,SW,235,0.0,0.0,88,0.00,,,0.00,meteohub,2013-12-28 09:12:00,
2013-12-28 03:17:00,37.9,34.7,30.28,SW,235,0.0,0.0,88,0.00,,,0.00,meteohub,2013-12-28 09:17:00,
2013-12-28 03:22:00,37.9,34.7,30.28,SW,235,0.0,0.0,88,0.00,,,0.00,meteohub,2013-12-28 09:22:00,
2013-12-28 03:27:00,37.8,34.5,30.28,SW,235,0.0,0.0,88,0.00,,,0.00,meteohub,2013-12-28 09:27:00,
2013-12-28 03:32:00,37.8,34.9,30.28,SW,235,0.0,0.0,89,0.00,,,0.00,meteohub,2013-12-28 09:32:00,
2013-12-28 03:37:00,37.8,35.1,30.27,SW,235,0.0,0.0,90,0.00,,,0.00,meteohub,2013-12-28 09:37:00,
2013-12-28 03:42:00,37.8,35.1,30.27,SW,235,0.0,0.0,90,0.00,,,0.00,meteohub,2013-12-28 09:42:00,
2013-12-28 03:47:00,37.9,35.2,30.27,SW,235,0.0,0.0,90,0.00,,,0.00,meteohub,2013-12-28 09:47:00,
2013-12-28 03:52:00,38.1,35.4,30.27,SW,235,0.0,0.0,90,0.00,,,0.00,meteohub,2013-12-28 09:52:00,
2013-12-28 03:57:00,38.1,35.4,30.27,SW,235,0.0,0.0,90,0.00,,,0.00,meteohub,2013-12-28 09:57:00,
2013-12-28 04:02:00,38.3,35.6,30.27,SW,235,0.0,0.0,90,0.00,,,0.00,meteohub,2013-12-28 10:02:00,
2013-12-28 04:07:00,38.5,35.8,30.27,SW,235,0.0,0.0,90,0.00,,,0.00,meteohub,2013-12-28 10:07:00,
2013-12-28 04:12:00,38.5,35.6,30.27,SW,235,0.0,0.0,89,0.00,,,0.00,meteohub,2013-12-28 10:12:00,
2013-12-28 04:18:00,38.5,35.6,30.27,SW,235,0.0,0.0,89,0.00,,,0.00,meteohub,2013-12-28 10:18:00,
2013-12-28 04:23:00,38.3,35.4,30.27,SW,235,0.0,0.0,89,0.00,,,0.00,meteohub,2013-12-28 10:23:00,
2013-12-28 04:28:00,38.3,35.6,30.26,SW,235,0.0,0.0,90,0.00,,,0.00,meteohub,2013-12-28 10:28:00,
2013-12-28 04:33:00,38.5,35.8,30.26,SW,235,0.0,0.0,90,0.00,,,0.00,meteohub,2013-12-28 10:33:00,
2013-12-28 04:38:00,38.5,35.8,30.26,SW,235,0.0,0.0,90,0.00,,,0.00,meteohub,2013-12-28 10:38:00,
2013-12-28 04:43:00,38.7,36.0,30.26,SW,235,0.0,0.0,90,0.00,,,0.00,meteohub,2013-12-28 10:43:00,
2013-12-28 04:48:00,38.7,36.0,30.26,SW,235,0.0,0.0,90,0.00,,,0.00,meteohub,2013-12-28 10:48:00,
2013-12-28 04:53:00,38.7,35.8,30.25,SW,235,0.0,0.0,89,0.00,,,0.00,meteohub,2013-12-28 10:53:00,
2013-12-28 04:58:00,38.8,36.0,30.25,SW,235,0.0,0.0,89,0.00,,,0.00,meteohub,2013-12-28 10:58:00,
2013-12-28 05:02:00,38.8,36.0,30.26,SW,235,0.0,0.0,89,0.00,,,0.00,meteohub,2013-12-28 11:02:00,
2013-12-28 05:07:00,38.8,36.0,30.25,SW,235,0.0,0.0,89,0.00,,,0.00,meteohub,2013-12-28 11:07:00,
2013-12-28 05:12:00,38.8,36.0,30.25,SW,235,0.0,0.0,89,0.00,,,0.00,meteohub,2013-12-28 11:12:00,
2013-12-28 05:18:00,39.0,36.1,30.25,SW,235,0.0,0.0,89,0.00,,,0.00,meteohub,2013-12-28 11:18:00,
2013-12-28 05:23:00,39.0,36.1,30.25,SW,235,0.0,0.0,89,0.00,,,0.00,meteohub,2013-12-28 11:23:00,
2013-12-28 05:28:00,39.2,36.0,30.25,SW,235,0.0,0.0,88,0.00,,,0.00,meteohub,2013-12-28 11:28:00,
2013-12-28 05:33:00,39.4,36.1,30.24,SW,235,0.0,0.0,88,0.00,,,0.00,meteohub,2013-12-28 11:33:00,
2013-12-28 05:38:00,39.4,36.1,30.24,SW,235,0.0,0.0,88,0.00,,,0.00,meteohub,2013-12-28 11:38:00,
2013-12-28 05:43:00,39.6,36.3,30.24,SW,235,0.0,0.0,88,0.00,,,0.00,meteohub,2013-12-28 11:43:00,
2013-12-28 05:48:00,39.6,36.3,30.25,SW,235,0.0,0.0,88,0.00,,,0.00,meteohub,2013-12-28 11:48:00,
2013-12-28 05:53:00,39.7,36.1,30.24,SW,235,0.0,0.0,87,0.00,,,0.00,meteohub,2013-12-28 11:53:00,
2013-12-28 05:58:00,39.7,36.1,30.24,SW,235,0.0,0.0,87,0.00,,,0.00,meteohub,2013-12-28 11:58:00,
2013-12-28 06:03:00,39.7,36.5,30.24,SW,235,0.0,0.0,88,0.00,,,0.00,meteohub,2013-12-28 12:03:00,
2013-12-28 06:08:00,39.9,36.3,30.25,SW,235,0.0,0.0,87,0.00,,,0.00,meteohub,2013-12-28 12:08:00,
2013-12-28 06:13:00,40.1,36.5,30.24,SW,235,0.0,0.0,87,0.00,,,0.00,meteohub,2013-12-28 12:13:00,
2013-12-28 06:18:00,40.3,36.7,30.24,SW,235,0.0,0.0,87,0.00,,,0.00,meteohub,2013-12-28 12:18:00,
2013-12-28 06:23:00,40.3,36.7,30.24,SW,235,0.0,0.0,87,0.00,,,0.00,meteohub,2013-12-28 12:23:00,
2013-12-28 06:28:00,40.3,36.7,30.24,SW,235,0.0,0.0,87,0.00,,,0.00,meteohub,2013-12-28 12:28:00,
2013-12-28 06:33:00,40.5,36.9,30.24,SW,235,0.0,0.0,87,0.00,,,0.00,meteohub,2013-12-28 12:33:00,
2013-12-28 06:38:00,40.5,36.7,30.24,SW,235,0.0,0.0,86,0.00,,,0.00,meteohub,2013-12-28 12:38:00,
2013-12-28 06:43:00,40.5,36.7,30.24,SW,235,0.0,0.0,86,0.00,,,0.00,meteohub,2013-12-28 12:43:00,
2013-12-28 06:48:00,40.5,36.9,30.24,SW,235,0.0,0.0,87,0.00,,,0.00,meteohub,2013-12-28 12:48:00,
2013-12-28 06:53:00,40.5,36.7,30.24,SW,235,0.0,0.0,86,0.00,,,0.00,meteohub,2013-12-28 12:53:00,
2013-12-28 06:58:00,40.5,36.7,30.24,SW,235,0.0,0.0,86,0.00,,,0.00,meteohub,2013-12-28 12:58:00,
2013-12-28 07:03:00,40.3,36.5,30.24,SW,235,0.0,0.0,86,0.00,,,0.00,meteohub,2013-12-28 13:03:00,
2013-12-28 07:08:00,40.3,36.7,30.24,SW,235,0.0,0.0,87,0.00,,,0.00,meteohub,2013-12-28 13:08:00,
2013-12-28 07:13:00,40.3,36.7,30.24,SW,235,0.0,0.0,87,0.00,,,0.00,meteohub,2013-12-28 13:13:00,
2013-12-28 07:18:00,40.5,36.9,30.24,SW,235,0.0,0.0,87,0.00,,,0.00,meteohub,2013-12-28 13:18:00,
2013-12-28 07:23:00,40.5,36.9,30.24,SW,235,0.0,0.0,87,0.00,,,0.00,meteohub,2013-12-28 13:23:00,
2013-12-28 07:28:00,40.6,37.0,30.24,SW,235,0.0,0.0,87,0.00,,,0.00,meteohub,2013-12-28 13:28:00,
2013-12-28 07:33:00,40.6,37.0,30.24,SW,235,0.0,0.0,87,0.00,,,0.00,meteohub,2013-12-28 13:33:00,
2013-12-28 07:38:00,40.6,37.0,30.24,SW,235,0.0,0.0,87,0.00,,,0.00,meteohub,2013-12-28 13:38:00,
2013-12-28 07:43:00,40.8,37.2,30.24,SW,235,0.0,0.0,87,0.00,,,0.00,meteohub,2013-12-28 13:43:00,
2013-12-28 07:48:00,41.0,37.4,30.24,SW,235,0.0,0.0,87,0.00,,,0.00,meteohub,2013-12-28 13:48:00,
2013-12-28 07:53:00,41.2,37.6,30.24,SW,235,0.0,0.0,87,0.00,,,0.00,meteohub,2013-12-28 13:53:00,
2013-12-28 07:58:00,41.2,37.4,30.24,SW,235,0.0,0.0,86,0.00,,,0.00,meteohub,2013-12-28 13:58:00,
2013-12-28 08:03:00,41.2,37.4,30.24,SW,235,0.0,0.0,86,0.00,,,0.00,meteohub,2013-12-28 14:03:00,
2013-12-28 08:08:00,41.2,37.4,30.24,SW,235,0.0,0.0,86,0.00,,,0.00,meteohub,2013-12-28 14:08:00,
2013-12-28 08:13:00,41.2,37.4,30.24,SW,235,0.0,0.0,86,0.00,,,0.00,meteohub,2013-12-28 14:13:00,
2013-12-28 08:18:00,41.4,37.6,30.24,SW,235,0.0,0.0,86,0.00,,,0.00,meteohub,2013-12-28 14:18:00,
2013-12-28 08:23:00,41.4,37.6,30.24,SW,235,0.0,0.0,86,0.00,,,0.00,meteohub,2013-12-28 14:23:00,
2013-12-28 08:28:00,41.4,37.6,30.24,SW,235,0.0,0.0,86,0.00,,,0.00,meteohub,2013-12-28 14:28:00,
2013-12-28 08:33:00,41.4,37.6,30.24,SW,235,0.0,0.0,86,0.00,,,0.00,meteohub,2013-12-28 14:33:00,
2013-12-28 08:38:00,41.4,37.8,30.24,SW,235,0.0,0.0,87,0.00,,,0.00,meteohub,2013-12-28 14:38:00,
2013-12-28 08:43:00,41.4,38.1,30.24,SW,235,0.0,0.0,88,0.00,,,0.00,meteohub,2013-12-28 14:43:00,
2013-12-28 08:48:00,41.4,38.1,30.24,SW,235,0.0,0.0,88,0.00,,,0.00,meteohub,2013-12-28 14:48:00,
2013-12-28 08:53:00,41.4,38.1,30.23,SW,235,0.0,0.0,88,0.00,,,0.00,meteohub,2013-12-28 14:53:00,
2013-12-28 08:58:00,41.5,38.3,30.23,SW,235,0.0,0.0,88,0.00,,,0.00,meteohub,2013-12-28 14:58:00,
2013-12-28 09:03:00,41.5,38.3,30.23,SW,235,0.0,0.0,88,0.00,,,0.00,meteohub,2013-12-28 15:03:00,
2013-12-28 09:08:00,41.5,38.3,30.23,SW,235,0.0,0.0,88,0.00,,,0.00,meteohub,2013-12-28 15:08:00,
2013-12-28 09:13:00,41.5,38.5,30.23,SW,235,0.0,0.0,89,0.00,,,0.00,meteohub,2013-12-28 15:13:00,
2013-12-28 09:18:00,41.7,38.7,30.23,SW,235,0.0,0.0,89,0.00,,,0.00,meteohub,2013-12-28 15:18:00,
2013-12-28 09:23:00,41.9,38.8,30.23,SW,235,0.0,0.0,89,0.00,,,0.00,meteohub,2013-12-28 15:23:00,
2013-12-28 09:28:00,42.3,39.6,30.23,SW,235,0.0,0.0,90,0.00,,,0.00,meteohub,2013-12-28 15:28:00,
2013-12-28 09:33:00,42.4,39.7,30.23,SW,235,0.0,0.0,90,0.00,,,0.00,meteohub,2013-12-28 15:33:00,
2013-12-28 09:39:00,42.8,40.1,30.23,SW,235,0.0,0.0,90,0.00,,,0.00,meteohub,2013-12-28 15:39:00,
2013-12-28 09:44:00,43.2,40.6,30.23,SW,235,0.0,0.0,91,0.00,,,0.00,meteohub,2013-12-28 15:44:00,
2013-12-28 09:49:00,43.7,41.2,30.22,SW,235,0.0,0.0,91,0.00,,,0.00,meteohub,2013-12-28 15:49:00,
2013-12-28 09:54:00,44.2,41.7,30.22,SW,235,0.0,0.0,91,0.00,,,0.00,meteohub,2013-12-28 15:54:00,
2013-12-28 09:59:00,44.6,42.1,30.22,SW,235,0.0,0.0,91,0.00,,,0.00,meteohub,2013-12-28 15:59:00,
2013-12-28 10:04:00,45.1,42.4,30.22,SW,235,0.0,0.0,90,0.00,,,0.00,meteohub,2013-12-28 16:04:00,
2013-12-28 10:09:00,46.0,43.3,30.22,SW,235,0.0,0.0,90,0.00,,,0.00,meteohub,2013-12-28 16:09:00,
2013-12-28 10:14:00,46.9,43.9,30.22,SW,235,0.0,0.0,89,0.00,,,0.00,meteohub,2013-12-28 16:14:00,
2013-12-28 10:19:00,47.8,44.8,30.22,SW,235,0.0,0.0,89,0.00,,,0.00,meteohub,2013-12-28 16:19:00,
2013-12-28 10:24:00,48.7,45.3,30.21,SW,235,0.0,0.0,88,0.00,,,0.00,meteohub,2013-12-28 16:24:00,
2013-12-28 10:29:00,49.6,45.9,30.21,SW,225,0.0,4.0,87,0.00,,,0.00,meteohub,2013-12-28 16:29:00,
2013-12-28 10:34:00,50.5,46.8,30.21,SW,227,6.0,6.0,87,0.00,,,0.00,meteohub,2013-12-28 16:34:00,
2013-12-28 10:39:00,51.3,46.2,30.20,SSW,211,0.0,4.0,83,0.00,,,0.00,meteohub,2013-12-28 16:39:00,
2013-12-28 10:44:00,51.6,46.0,30.20,SW,232,5.0,5.0,81,0.00,,,0.00,meteohub,2013-12-28 16:44:00,
2013-12-28 10:49:00,51.6,46.0,30.20,WSW,237,0.0,12.0,81,0.00,,,0.00,meteohub,2013-12-28 16:49:00,
2013-12-28 10:54:00,51.6,46.0,30.20,SW,221,4.0,12.0,81,0.00,,,0.00,meteohub,2013-12-28 16:54:00,
2013-12-28 10:59:00,51.6,45.7,30.19,WSW,238,0.0,12.0,80,0.00,,,0.00,meteohub,2013-12-28 16:59:00,
2013-12-28 11:04:00,51.4,45.5,30.19,SW,215,6.0,12.0,80,0.00,,,0.00,meteohub,2013-12-28 17:04:00,
2013-12-28 11:09:00,51.4,45.5,30.19,SW,232,4.0,12.0,80,0.00,,,0.00,meteohub,2013-12-28 17:09:00,
2013-12-28 11:14:00,51.4,45.9,30.19,South,183,4.0,12.0,81,0.00,,,0.00,meteohub,2013-12-28 17:14:00,
2013-12-28 11:19:00,51.4,45.9,30.19,WSW,244,2.0,12.0,81,0.00,,,0.00,meteohub,2013-12-28 17:19:00,
2013-12-28 11:24:00,51.6,45.7,30.18,SW,232,1.0,12.0,80,0.00,,,0.00,meteohub,2013-12-28 17:24:00,
2013-12-28 11:29:00,52.0,46.0,30.18,South,182,0.0,12.0,80,0.00,,,0.00,meteohub,2013-12-28 17:29:00,
2013-12-28 11:34:00,52.2,45.9,30.18,SSW,205,3.0,12.0,79,0.00,,,0.00,meteohub,2013-12-28 17:34:00,
2013-12-28 11:39:00,52.5,46.2,30.18,SW,227,11.0,12.0,79,0.00,,,0.00,meteohub,2013-12-28 17:39:00,
2013-12-28 11:44:00,52.3,46.0,30.17,WSW,244,6.0,12.0,79,0.00,,,0.00,meteohub,2013-12-28 17:44:00,
2013-12-28 11:49:00,52.0,45.7,30.17,SW,234,5.0,12.0,79,0.00,,,0.00,meteohub,2013-12-28 17:49:00,
2013-12-28 11:54:00,51.8,45.9,30.17,SW,217,1.0,14.0,80,0.00,,,0.00,meteohub,2013-12-28 17:54:00,
2013-12-28 11:59:00,51.8,45.9,30.16,WSW,240,10.0,14.0,80,0.00,,,0.00,meteohub,2013-12-28 17:59:00,
2013-12-28 12:04:00,51.6,46.0,30.16,SW,220,2.0,14.0,81,0.00,,,0.00,meteohub,2013-12-28 18:04:00,
2013-12-28 12:09:00,51.6,46.0,30.16,SW,234,4.0,14.0,81,0.00,,,0.00,meteohub,2013-12-28 18:09:00,
2013-12-28 12:14:00,51.8,46.2,30.15,SW,232,0.0,14.0,81,0.00,,,0.00,meteohub,2013-12-28 18:14:00,
2013-12-28 12:19:00,52.0,46.4,30.15,WSW,238,1.0,12.0,81,0.00,,,0.00,meteohub,2013-12-28 18:19:00,
2013-12-28 12:24:00,52.0,46.4,30.14,South,184,2.0,12.0,81,0.00,,,0.00,meteohub,2013-12-28 18:24:00,
2013-12-28 12:29:00,52.2,46.6,30.14,SSW,209,0.0,12.0,81,0.00,,,0.00,meteohub,2013-12-28 18:29:00,
2013-12-28 12:34:00,52.2,46.6,30.13,SW,233,4.0,12.0,81,0.00,,,0.00,meteohub,2013-12-28 18:34:00,
2013-12-28 12:39:00,52.3,46.4,30.13,SW,232,4.0,12.0,80,0.00,,,0.00,meteohub,2013-12-28 18:39:00,
2013-12-28 12:44:00,52.2,46.2,30.12,SSW,204,4.0,12.0,80,0.00,,,0.00,meteohub,2013-12-28 18:44:00,
2013-12-28 12:49:00,52.2,46.2,30.12,SW,236,0.0,10.0,80,0.00,,,0.00,meteohub,2013-12-28 18:49:00,
2013-12-28 12:54:00,52.3,46.4,30.12,SW,235,7.0,10.0,80,0.00,,,0.00,meteohub,2013-12-28 18:54:00,
2013-12-28 12:59:00,52.5,46.6,30.11,SW,218,7.0,10.0,80,0.00,,,0.00,meteohub,2013-12-28 18:59:00,
2013-12-28 13:04:00,52.5,46.2,30.10,SW,223,11.0,11.0,79,0.00,,,0.00,meteohub,2013-12-28 19:04:00,
2013-12-28 13:09:00,52.5,46.6,30.10,WSW,249,7.0,10.0,80,0.00,,,0.00,meteohub,2013-12-28 19:09:00,
2013-12-28 13:14:00,52.7,46.4,30.10,SW,219,0.0,10.0,79,0.00,,,0.00,meteohub,2013-12-28 19:14:00,
2013-12-28 13:19:00,52.9,46.6,30.09,SW,229,4.0,14.0,79,0.00,,,0.00,meteohub,2013-12-28 19:19:00,
2013-12-28 13:24:00,53.1,46.4,30.09,SW,234,6.0,14.0,78,0.00,,,0.00,meteohub,2013-12-28 19:24:00,
2013-12-28 13:29:00,53.1,46.4,30.08,South,182,6.0,14.0,78,0.00,,,0.00,meteohub,2013-12-28 19:29:00,
2013-12-28 13:34:00,53.2,46.2,30.08,SW,225,4.0,14.0,77,0.00,,,0.00,meteohub,2013-12-28 19:34:00,
2013-12-28 13:39:00,53.2,46.2,30.08,SW,223,6.0,15.0,77,0.00,,,0.00,meteohub,2013-12-28 19:39:00,
2013-12-28 13:45:00,53.1,46.0,30.07,SW,214,6.0,15.0,77,0.00,,,0.00,meteohub,2013-12-28 19:45:00,
2013-12-28 13:50:00,53.1,46.0,30.07,SW,229,8.0,15.0,77,0.00,,,0.00,meteohub,2013-12-28 19:50:00,
2013-12-28 13:55:00,53.1,46.0,30.06,SW,221,6.0,15.0,77,0.00,,,0.00,meteohub,2013-12-28 19:55:00,
2013-12-28 14:00:00,53.2,46.2,30.06,SW,219,0.0,16.0,77,0.00,,,0.00,meteohub,2013-12-28 20:00:00,
2013-12-28 14:05:00,53.2,46.2,30.05,SW,232,3.0,16.0,77,0.00,,,0.00,meteohub,2013-12-28 20:05:00,
2013-12-28 14:10:00,53.4,46.0,30.05,WSW,240,6.0,16.0,76,0.00,,,0.00,meteohub,2013-12-28 20:10:00,
2013-12-28 14:15:00,53.4,45.7,30.04,SW,226,8.0,16.0,75,0.00,,,0.00,meteohub,2013-12-28 20:15:00,
2013-12-28 14:20:00,53.6,45.9,30.04,SW,225,5.0,14.0,75,0.00,,,0.00,meteohub,2013-12-28 20:20:00,
2013-12-28 14:25:00,53.6,45.9,30.04,SW,232,4.0,14.0,75,0.00,,,0.00,meteohub,2013-12-28 20:25:00,
2013-12-28 14:30:00,53.6,45.9,30.04,SW,235,12.0,14.0,75,0.00,,,0.00,meteohub,2013-12-28 20:30:00,
2013-12-28 14:35:00,53.6,45.5,30.04,SSW,212,3.0,14.0,74,0.00,,,0.00,meteohub,2013-12-28 20:35:00,
2013-12-28 14:40:00,53.6,45.5,30.04,SW,231,11.0,14.0,74,0.00,,,0.00,meteohub,2013-12-28 20:40:00,
2013-12-28 14:45:00,53.6,45.5,30.04,SW,223,8.0,16.0,74,0.00,,,0.00,meteohub,2013-12-28 20:45:00,
2013-12-28 14:50:00,53.8,45.7,30.03,SW,223,9.0,16.0,74,0.00,,,0.00,meteohub,2013-12-28 20:50:00,
2013-12-28 14:55:00,53.8,45.7,30.03,SW,229,6.0,16.0,74,0.00,,,0.00,meteohub,2013-12-28 20:55:00,
2013-12-28 15:00:00,53.8,45.7,30.03,SSE,166,14.0,16.0,74,0.00,,,0.00,meteohub,2013-12-28 21:00:00,
2013-12-28 15:05:00,53.8,45.7,30.03,WSW,253,3.0,16.0,74,0.00,,,0.00,meteohub,2013-12-28 21:05:00,
2013-12-28 15:10:00,53.8,45.7,30.03,SSW,205,5.0,14.0,74,0.00,,,0.00,meteohub,2013-12-28 21:10:00,
2013-12-28 15:15:00,53.8,45.7,30.02,SW,225,6.0,14.0,74,0.00,,,0.00,meteohub,2013-12-28 21:15:00,
2013-12-28 15:20:00,54.0,45.5,30.02,SW,215,11.0,14.0,73,0.00,,,0.00,meteohub,2013-12-28 21:20:00,
2013-12-28 15:25:00,54.0,45.1,30.02,SW,228,13.0,14.0,72,0.00,,,0.00,meteohub,2013-12-28 21:25:00,
2013-12-28 15:30:00,54.0,45.1,30.02,SW,214,10.0,14.0,72,0.00,,,0.00,meteohub,2013-12-28 21:30:00,
2013-12-28 15:35:00,54.0,45.5,30.02,SW,221,3.0,16.0,73,0.00,,,0.00,meteohub,2013-12-28 21:35:00,
2013-12-28 15:40:00,54.0,45.5,30.02,SW,230,7.0,16.0,73,0.00,,,0.00,meteohub,2013-12-28 21:40:00,
2013-12-28 15:45:00,54.0,45.5,30.01,SW,221,6.0,16.0,73,0.00,,,0.00,meteohub,2013-12-28 21:45:00,
2013-12-28 15:50:00,54.0,45.1,30.02,SW,215,6.0,16.0,72,0.00,,,0.00,meteohub,2013-12-28 21:50:00,
2013-12-28 15:55:00,54.0,45.1,30.01,SW,235,10.0,15.0,72,0.00,,,0.00,meteohub,2013-12-28 21:55:00,
2013-12-28 16:01:00,54.1,45.3,30.01,SW,225,4.0,15.0,72,0.00,,,0.00,meteohub,2013-12-28 22:01:00,
2013-12-28 16:06:00,54.1,45.0,30.01,SW,218,8.0,15.0,71,0.00,,,0.00,meteohub,2013-12-28 22:06:00,
2013-12-28 16:11:00,54.1,45.0,30.01,SW,230,11.0,15.0,71,0.00,,,0.00,meteohub,2013-12-28 22:11:00,
2013-12-28 16:16:00,54.1,45.0,30.00,SSW,201,1.0,16.0,71,0.00,,,0.00,meteohub,2013-12-28 22:16:00,
2013-12-28 16:21:00,54.3,45.1,30.01,WSW,241,5.0,16.0,71,0.00,,,0.00,meteohub,2013-12-28 22:21:00,
2013-12-28 16:26:00,54.3,45.1,30.00,SSW,209,1.0,16.0,71,0.00,,,0.00,meteohub,2013-12-28 22:26:00,
2013-12-28 16:31:00,54.3,45.5,30.00,South,190,5.0,12.0,72,0.00,,,0.00,meteohub,2013-12-28 22:31:00,
2013-12-28 16:36:00,54.3,45.1,30.00,South,182,4.0,12.0,71,0.00,,,0.00,meteohub,2013-12-28 22:36:00,
2013-12-28 16:41:00,54.3,45.1,29.99,SW,232,0.0,7.0,71,0.00,,,0.00,meteohub,2013-12-28 22:41:00,
2013-12-28 16:46:00,54.3,45.1,29.99,SSW,207,2.0,7.0,71,0.00,,,0.00,meteohub,2013-12-28 22:46:00,
2013-12-28 16:51:00,54.3,45.1,29.99,WSW,246,7.0,7.0,71,0.00,,,0.00,meteohub,2013-12-28 22:51:00,
2013-12-28 16:56:00,54.3,45.5,29.99,SSW,195,0.0,7.0,72,0.00,,,0.00,meteohub,2013-12-28 22:56:00,
2013-12-28 17:01:00,54.3,45.5,29.99,South,186,2.0,10.0,72,0.00,,,0.00,meteohub,2013-12-28 23:01:00,
2013-12-28 17:06:00,54.1,45.3,29.99,South,186,4.0,10.0,72,0.00,,,0.00,meteohub,2013-12-28 23:06:00,
2013-12-28 17:11:00,54.1,45.3,29.99,SSW,202,2.0,10.0,72,0.00,,,0.00,meteohub,2013-12-28 23:11:00,
2013-12-28 17:16:00,54.0,45.5,29.99,SSW,197,0.0,8.0,73,0.00,,,0.00,meteohub,2013-12-28 23:16:00,
2013-12-28 17:21:00,53.8,45.7,29.99,SSW,204,0.0,8.0,74,0.00,,,0.00,meteohub,2013-12-28 23:21:00,
2013-12-28 17:26:00,53.4,45.3,29.98,SSW,204,5.0,8.0,74,0.00,,,0.00,meteohub,2013-12-28 23:26:00,
2013-12-28 17:31:00,53.2,45.1,29.98,SW,236,4.0,6.0,74,0.00,,,0.00,meteohub,2013-12-28 23:31:00,
2013-12-28 17:36:00,53.1,45.3,29.98,SSW,211,2.0,6.0,75,0.00,,,0.00,meteohub,2013-12-28 23:36:00,
2013-12-28 17:41:00,52.9,45.1,29.99,SW,223,0.0,7.0,75,0.00,,,0.00,meteohub,2013-12-28 23:41:00,
2013-12-28 17:46:00,52.7,45.3,29.99,SW,234,0.0,7.0,76,0.00,,,0.00,meteohub,2013-12-28 23:46:00,
2013-12-28 17:51:00,52.5,45.1,29.99,SW,232,0.0,7.0,76,0.00,,,0.00,meteohub,2013-12-28 23:51:00,
2013-12-28 17:56:00,52.5,45.1,29.98,SW,225,0.0,7.0,76,0.00,,,0.00,meteohub,2013-12-28 23:56:00,
2013-12-28 18:01:00,52.3,45.3,29.98,SW,228,0.0,6.0,77,0.00,,,0.00,meteohub,2013-12-29 00:01:00,
2013-12-28 18:06:00,52.3,45.3,29.98,SSW,204,0.0,6.0,77,0.00,,,0.00,meteohub,2013-12-29 00:06:00,
2013-12-28 18:11:00,52.2,45.1,29.98,SSW,207,0.0,6.0,77,0.00,,,0.00,meteohub,2013-12-29 00:11:00,
2013-12-28 18:16:00,52.2,45.1,29.98,WSW,242,0.0,8.0,77,0.00,,,0.00,meteohub,2013-12-29 00:16:00,
2013-12-28 18:21:00,52.0,45.3,29.98,SSW,202,0.0,8.0,78,0.00,,,0.00,meteohub,2013-12-29 00:21:00,
2013-12-28 18:26:00,51.8,45.1,29.98,SSW,203,0.0,8.0,78,0.00,,,0.00,meteohub,2013-12-29 00:26:00,
2013-12-28 18:31:00,51.6,45.0,29.98,SSW,201,0.0,8.0,78,0.00,,,0.00,meteohub,2013-12-29 00:31:00,
2013-12-28 18:36:00,51.4,44.8,29.98,SSW,207,0.0,8.0,78,0.00,,,0.00,meteohub,2013-12-29 00:36:00,
2013-12-28 18:41:00,51.3,45.0,29.98,SSW,202,0.0,3.0,79,0.00,,,0.00,meteohub,2013-12-29 00:41:00,
2013-12-28 18:46:00,50.9,44.6,29.98,SSW,202,0.0,3.0,79,0.00,,,0.00,meteohub,2013-12-29 00:46:00,
2013-12-28 18:51:00,50.7,44.8,29.98,SSW,202,0.0,3.0,80,0.00,,,0.00,meteohub,2013-12-29 00:51:00,
2013-12-28 18:56:00,50.5,44.6,29.98,SSW,202,0.0,3.0,80,0.00,,,0.00,meteohub,2013-12-29 00:56:00,
2013-12-28 19:01:00,50.5,45.0,29.98,SSW,202,0.0,1.0,81,0.00,,,0.00,meteohub,2013-12-29 01:01:00,
2013-12-28 19:06:00,50.4,44.8,29.98,SSW,202,0.0,1.0,81,0.00,,,0.00,meteohub,2013-12-29 01:06:00,
2013-12-28 19:11:00,50.4,44.8,29.99,SSW,202,0.0,1.0,81,0.00,,,0.00,meteohub,2013-12-29 01:11:00,
2013-12-28 19:16:00,50.4,44.8,29.99,SSW,196,0.0,1.0,81,0.00,,,0.00,meteohub,2013-12-29 01:16:00,
2013-12-28 19:21:00,50.4,44.8,29.99,SSW,205,0.0,3.0,81,0.00,,,0.00,meteohub,2013-12-29 01:21:00,
2013-12-28 19:26:00,50.2,44.6,29.99,SSW,202,0.0,3.0,81,0.00,,,0.00,meteohub,2013-12-29 01:26:00,
2013-12-28 19:31:00,50.0,44.4,29.99,SW,222,0.0,3.0,81,0.00,,,0.00,meteohub,2013-12-29 01:31:00,
2013-12-28 19:36:00,49.8,44.2,29.98,SW,220,0.0,3.0,81,0.00,,,0.00,meteohub,2013-12-29 01:36:00,
2013-12-28 19:42:00,49.6,44.1,29.98,SW,220,0.0,3.0,81,0.00,,,0.00,meteohub,2013-12-29 01:42:00,
2013-12-28 19:47:00,49.3,44.1,29.98,SW,220,0.0,3.0,82,0.00,,,0.00,meteohub,2013-12-29 01:47:00,
2013-12-28 19:52:00,48.9,43.7,29.98,SW,220,0.0,1.0,82,0.00,,,0.00,meteohub,2013-12-29 01:52:00,
2013-12-28 19:57:00,48.7,43.9,29.98,SW,220,0.0,1.0,83,0.00,,,0.00,meteohub,2013-12-29 01:57:00,
2013-12-28 20:01:00,48.4,43.5,29.98,SW,220,0.0,0.0,83,0.00,,,0.00,meteohub,2013-12-29 02:01:00,
2013-12-28 20:06:00,48.0,43.2,29.98,SW,220,0.0,0.0,83,0.00,,,0.00,meteohub,2013-12-29 02:06:00,
2013-12-28 20:12:00,47.7,43.0,29.98,SW,220,0.0,0.0,84,0.00,,,0.00,meteohub,2013-12-29 02:12:00,
2013-12-28 20:16:00,47.5,42.8,29.98,SW,220,0.0,0.0,84,0.00,,,0.00,meteohub,2013-12-29 02:16:00,
2013-12-28 20:21:00,47.1,42.8,29.97,SW,220,0.0,0.0,85,0.00,,,0.00,meteohub,2013-12-29 02:21:00,
2013-12-28 20:26:00,46.9,42.6,29.98,SW,220,0.0,0.0,85,0.00,,,0.00,meteohub,2013-12-29 02:26:00,
2013-12-28 20:32:00,46.6,42.6,29.98,SW,220,0.0,0.0,86,0.00,,,0.00,meteohub,2013-12-29 02:32:00,
2013-12-28 20:37:00,46.6,42.6,29.98,SW,220,0.0,0.0,86,0.00,,,0.00,meteohub,2013-12-29 02:37:00,
2013-12-28 20:42:00,46.2,42.3,29.97,SW,220,0.0,0.0,86,0.00,,,0.00,meteohub,2013-12-29 02:42:00,
2013-12-28 20:47:00,46.0,42.4,29.98,SW,220,0.0,0.0,87,0.00,,,0.00,meteohub,2013-12-29 02:47:00,
2013-12-28 20:52:00,46.0,42.4,29.98,SW,220,0.0,0.0,87,0.00,,,0.00,meteohub,2013-12-29 02:52:00,
2013-12-28 20:57:00,45.9,42.3,29.98,SW,220,0.0,0.0,87,0.00,,,0.00,meteohub,2013-12-29 02:57:00,
2013-12-28 21:02:00,45.7,42.1,29.98,SW,220,0.0,0.0,87,0.00,,,0.00,meteohub,2013-12-29 03:02:00,
2013-12-28 21:07:00,45.3,41.7,29.98,SW,220,0.0,0.0,87,0.00,,,0.00,meteohub,2013-12-29 03:07:00,
2013-12-28 21:12:00,45.1,41.7,29.98,SW,220,0.0,0.0,88,0.00,,,0.00,meteohub,2013-12-29 03:12:00,
2013-12-28 21:17:00,45.1,41.7,29.98,SW,220,0.0,0.0,88,0.00,,,0.00,meteohub,2013-12-29 03:17:00,
2013-12-28 21:22:00,45.1,42.1,29.98,SW,220,0.0,0.0,89,0.00,,,0.00,meteohub,2013-12-29 03:22:00,
2013-12-28 21:27:00,45.1,42.1,29.98,SW,220,0.0,0.0,89,0.00,,,0.00,meteohub,2013-12-29 03:27:00,
2013-12-28 21:32:00,45.0,41.5,29.98,SW,220,0.0,0.0,88,0.00,,,0.00,meteohub,2013-12-29 03:32:00,
2013-12-28 21:37:00,44.8,41.4,29.97,SW,220,0.0,0.0,88,0.00,,,0.00,meteohub,2013-12-29 03:37:00,
2013-12-28 21:42:00,44.6,41.2,29.97,SW,220,0.0,0.0,88,0.00,,,0.00,meteohub,2013-12-29 03:42:00,
2013-12-28 21:47:00,44.4,41.4,29.98,SW,220,0.0,0.0,89,0.00,,,0.00,meteohub,2013-12-29 03:47:00,
2013-12-28 21:52:00,44.2,41.2,29.98,SW,220,0.0,0.0,89,0.00,,,0.00,meteohub,2013-12-29 03:52:00,
2013-12-28 21:57:00,44.2,41.2,29.98,SW,220,0.0,0.0,89,0.00,,,0.00,meteohub,2013-12-29 03:57:00,
2013-12-28 22:02:00,44.1,41.0,29.98,SW,220,0.0,0.0,89,0.00,,,0.00,meteohub,2013-12-29 04:02:00,
2013-12-28 22:07:00,43.9,40.8,29.99,SW,220,0.0,0.0,89,0.00,,,0.00,meteohub,2013-12-29 04:07:00,
2013-12-28 22:12:00,43.9,41.2,29.98,SW,220,0.0,0.0,90,0.00,,,0.00,meteohub,2013-12-29 04:12:00,
2013-12-28 22:17:00,43.9,41.2,29.98,SW,220,0.0,0.0,90,0.00,,,0.00,meteohub,2013-12-29 04:17:00,
2013-12-28 22:22:00,43.7,41.0,29.98,SW,220,0.0,0.0,90,0.00,,,0.00,meteohub,2013-12-29 04:22:00,
2013-12-28 22:27:00,43.5,40.8,29.98,SW,220,0.0,0.0,90,0.00,,,0.00,meteohub,2013-12-29 04:27:00,
2013-12-28 22:32:00,43.5,40.8,29.98,SW,220,0.0,0.0,90,0.00,,,0.00,meteohub,2013-12-29 04:32:00,
2013-12-28 22:37:00,43.5,40.8,29.99,SW,220,0.0,0.0,90,0.00,,,0.00,meteohub,2013-12-29 04:37:00,
2013-12-28 22:42:00,43.5,40.8,29.99,SW,220,0.0,0.0,90,0.00,,,0.00,meteohub,2013-12-29 04:42:00,
2013-12-28 22:47:00,43.3,40.8,29.99,SW,220,0.0,0.0,91,0.00,,,0.00,meteohub,2013-12-29 04:47:00,
2013-12-28 22:52:00,43.5,41.0,29.99,SW,220,0.0,0.0,91,0.00,,,0.00,meteohub,2013-12-29 04:52:00,
2013-12-28 22:57:00,43.7,41.2,29.99,SW,220,0.0,0.0,91,0.00,,,0.00,meteohub,2013-12-29 04:57:00,
2013-12-28 23:01:00,43.9,41.4,29.98,SW,220,0.0,0.0,91,0.00,,,0.00,meteohub,2013-12-29 05:01:00,
2013-12-28 23:02:00,43.9,41.4,29.99,SW,220,0.0,0.0,91,0.00,,,0.00,meteohub,2013-12-29 05:02:00,
2013-12-28 23:07:00,43.9,41.4,29.99,SW,220,0.0,0.0,91,0.00,,,0.00,meteohub,2013-12-29 05:07:00,
2013-12-28 23:12:00,44.1,41.5,29.98,SW,220,0.0,0.0,91,0.00,,,0.00,meteohub,2013-12-29 05:12:00,
2013-12-28 23:18:00,44.1,41.5,29.99,SW,220,0.0,0.0,91,0.00,,,0.00,meteohub,2013-12-29 05:18:00,
2013-12-28 23:22:00,44.2,41.7,29.99,SW,220,0.0,0.0,91,0.00,,,0.00,meteohub,2013-12-29 05:22:00,
2013-12-28 23:27:00,44.2,42.1,29.99,SW,220,0.0,0.0,92,0.00,,,0.00,meteohub,2013-12-29 05:27:00,
2013-12-28 23:32:00,44.6,42.4,29.99,SW,220,0.0,0.0,92,0.00,,,0.00,meteohub,2013-12-29 05:32:00,
2013-12-28 23:37:00,44.8,42.3,29.99,SW,220,0.0,0.0,91,0.00,,,0.00,meteohub,2013-12-29 05:37:00,
2013-12-28 23:43:00,45.0,42.4,29.98,SW,234,0.0,0.0,91,0.00,,,0.00,meteohub,2013-12-29 05:43:00,
2013-12-28 23:48:00,45.1,42.6,29.99,SW,234,0.0,0.0,91,0.00,,,0.00,meteohub,2013-12-29 05:48:00,
2013-12-28 23:53:00,45.1,42.6,29.99,SW,234,0.0,5.0,91,0.00,,,0.00,meteohub,2013-12-29 05:53:00,
2013-12-28 23:58:00,45.3,42.8,29.99,SW,234,0.0,5.0,91,0.00,,,0.00,meteohub,2013-12-29 05:58:00,